Pescara - LIBP

Metar : METAR LIBP 201150Z 34009KT 9999 BKN014 13/10 Q1005=

Taf : TAF LIBP 201100Z 2012/2112 VRB05KT 9999 SCT030=

 Scopri come leggere i bollettini codificati...


Storico

LIBP 201150Z 34009KT 9999 BKN014 13/10 Q1005
LIBP 201050Z 35009KT 330V030 9999 BKN015 13/10 Q1004
LIBP 200950Z 36009KT 330V030 9999 FEW070 14/11 Q1004
LIBP 200850Z 03005KT 360V060 9999 SCT070 12/10 Q1003
LIBP 200750Z VRB02KT 9999 SCT070 11/09 Q1002
LIBP 200650Z 05003KT 360V080 9999 SCT070 09/08 Q1001
LIBP 200550Z AUTO VRB02KT 9999 SCT077/// 06/06 Q1000
LIBP 200450Z AUTO 09003KT 050V180 7000 FEW087/// 06/06 Q1000
LIBP 200350Z AUTO 28003KT 240V310 9999 BKN180/// 07/07 Q1000
LIBP 200250Z AUTO 20005KT 9000 -RA BKN089/// 08/07 Q1000
LIBP 200208Z AUTO 21007KT 3900 -RA BR SCT018/// BKN058/// OVC085/// 08/07 Q1001 RERA
LIBP 200150Z AUTO 24005KT 200V280 2200 +RA FEW020/// OVC046/// 08/07 Q1002
LIBP 200116Z AUTO 21006KT 2800 RA BKN018/// OVC062/// 08/07 Q1002
LIBP 200050Z AUTO 24005KT 4200 RA BR BKN018/// BKN020/// OVC068/// 08/07 Q1002
LIBP 200016Z AUTO 22005KT 180V250 2800 RA BKN020/// OVC070/// 08/07 Q1002
LIBP 200012Z AUTO 22004KT 4100 RA BKN020/// OVC075/// 08/07 Q1002
LIBP 192350Z AUTO 24003KT 4000 -RA BR OVC020/// 08/07 Q1002 RERA
LIBP 192311Z AUTO 23003KT 5000 -RA FEW020/// OVC070/// 08/07 Q1002
LIBP 192259Z AUTO 22003KT 180V280 4900 -RA BR FEW020/// OVC070/// 07/07 Q1002
LIBP 192250Z AUTO 22004KT 5000 -RA SCT020/// BKN070/// 07/07 Q1003
LIBP 192213Z AUTO 24002KT 3500 -RA BR BKN019/// OVC074/// 08/07 Q1003 RERA
LIBP 192150Z 24003KT 4000 RA SCT020 BKN060 08/07 Q1003
LIBP 192050Z 23003KT 5000 -RA SCT020 BKN060 07/07 Q1003 RERA
LIBP 191950Z 22005KT 6000 RA SCT025 BKN060 07/07 Q1004
LIBP 191850Z 21005KT 5000 RA SCT025 BKN060 07/07 Q1005
LIBP 191750Z 23003KT 4000 +RA SCT020 BKN050 08/07 Q1006
LIBP 191650Z 24005KT 6000 RA SCT030 BKN060 08/07 Q1007
LIBP 191550Z 22004KT 8000 RA SCT030 BKN060 08/07 Q1007
LIBP 191450Z 20005KT 9999 -RA SCT050 09/07 Q1007
LIBP 191350Z 19005KT 9999 -RA FEW040 SCT080 10/06 Q1008
LIBP 191250Z VRB02KT 9999 BKN027 11/05 Q1008
LIBP 191150Z VRB01KT 9999 FEW080 10/04 Q1009
LIBP 191050Z VRB02KT 9999 FEW040 09/03 Q1009
LIBP 190950Z VRB01KT 9999 FEW040 08/05 Q1010
LIBP 190850Z 23004KT 9999 FEW080 06/04 Q1010
LIBP 190750Z 23005KT 9999 SCT080 05/04 Q1010
LIBP 190650Z 22005KT 9999 FEW035 BKN080 04/03 Q1010
LIBP 190550Z AUTO 21004KT 9999 BKN081/// 03/02 Q1010
LIBP 190450Z AUTO 21005KT 9999 OVC082/// 03/02 Q1010
LIBP 190350Z AUTO 20004KT 9999 NCD 02/02 Q1010
LIBP 190250Z AUTO 23003KT 9999 NCD 03/02 Q1011
LIBP 190150Z AUTO 25005KT 9000 FEW080/// 04/04 Q1011
LIBP 190050Z AUTO 24005KT 9999 SCT072/// 05/04 Q1012
LIBP 182350Z AUTO 20006KT 9999 NCD 05/03 Q1012
LIBP 182250Z AUTO 20005KT 9999 NCD 06/03 Q1012
LIBP 182150Z 21005KT 9999 SCT080 06/04 Q1012
LIBP 182050Z 24004KT 210V280 9999 SCT090 07/04 Q1013
LIBP 181950Z 26003KT 230V290 CAVOK 08/06 Q1013
LIBP 181850Z 21005KT 9999 BKN060 09/06 Q1013
LIBP 181750Z 22004KT 9999 SCT050 09/07 Q1014
LIBP 181650Z 22004KT 9999 SCT050 09/07 Q1014
LIBP 181550Z 23004KT 9999 BKN060 10/05 Q1015
LIBP 181450Z 29004KT 270V330 9999 FEW035 BKN060 11/05 Q1015
LIBP 181350Z 23004KT 190V270 9999 FEW035 BKN080 10/07 Q1015
LIBP 181250Z 27003KT 230V320 9999 BKN050 11/06 Q1016
LIBP 181150Z 26004KT 240V300 9999 SCT040 10/06 Q1017
LIBP 181050Z 29007KT 260V320 9999 BKN038 10/05 Q1017
LIBP 180950Z 25003KT 180V320 9999 BKN035 09/06 Q1018
LIBP 180850Z 25003KT 170V310 9999 BKN040 09/06 Q1018
LIBP 180750Z 20006KT 9999 BKN040 09/07 Q1018
LIBP 180650Z 20003KT 160V240 9000 -RA BKN035 08/07 Q1018 RERA
LIBP 180550Z AUTO 21004KT 7000 -RA OVC031/// 08/08 Q1018 RERA
LIBP 180459Z AUTO 20005KT 7000 RA FEW007/// OVC028/// 08/08 Q1018
LIBP 180450Z AUTO 20006KT 9999 -RA OVC037/// 08/08 Q1018
LIBP 180350Z AUTO 24005KT 200V280 6000 -RA BKN009/// OVC037/// 08/08 Q1018
LIBP 180317Z AUTO 19005KT 5000 -RA FEW006/// OVC024/// 08/08 Q1018 RERA
LIBP 180250Z AUTO 20006KT 3800 RA OVC037/// 08/08 Q1018
LIBP 180203Z AUTO 21007KT 4600 RA OVC016/// 08/08 Q1019
LIBP 180201Z AUTO 22007KT 4900 -RA OVC018/// 08/07 Q1019 RERA
LIBP 180150Z AUTO 23006KT 5000 RA OVC019/// 08/07 Q1019
LIBP 180110Z AUTO 22005KT 9999 RA FEW017/// SCT029/// OVC046/// 08/07 Q1019
LIBP 180050Z AUTO 23006KT 9999 BKN020/// BKN039/// 08/08 Q1019
LIBP 172350Z AUTO 20007KT 9999 -RA BKN029/// 08/07 Q1019 RESHRA
LIBP 172313Z AUTO 23006KT 200V260 9999 +RA OVC029/// 08/07 Q1020
LIBP 172312Z AUTO 23006KT 9999 RA OVC029/// 08/07 Q1020
LIBP 172250Z AUTO 19004KT 9999 -RA OVC045/// 08/07 Q1020
LIBP 172150Z 22006KT 9999 SCT050 09/06 Q1020
LIBP 172050Z 22005KT 200V260 9999 SCT084 09/06 Q1020
LIBP 171950Z 27003KT 200V340 9999 SCT055 09/07 Q1020
LIBP 171850Z 22006KT 9999 SCT086 09/07 Q1020
LIBP 171750Z 20006KT 9999 SCT065 09/07 Q1020
LIBP 171650Z 17008KT 150V220 9999 FEW020 SCT070 10/07 Q1020
LIBP 171550Z 23005KT 9999 BKN050 10/07 Q1020
LIBP 171450Z 21007KT 9999 FEW030 BKN055 10/08 Q1020
LIBP 171350Z 22008KT 9999 -RA FEW030 BKN050 10/08 Q1020
LIBP 171250Z 23007KT 9999 FEW030 BKN060 11/07 Q1020
LIBP 171150Z 23006KT 9999 FEW040 BKN060 11/07 Q1020
LIBP 171050Z 20004KT 140V260 9999 FEW030 BKN050 11/07 Q1021
LIBP 170950Z 22006KT 190V270 9999 FEW030 BKN060 11/07 Q1021
LIBP 170850Z 23005KT 190V270 9999 BKN050 11/07 Q1021
LIBP 170750Z 21007KT 9999 FEW030 BKN055 11/07 Q1021
LIBP 170650Z 22005KT 190V250 9999 -RA BKN050 10/08 Q1021
LIBP 170606Z 23004KT 190V330 9999 FEW025 BKN045 09/08 Q1021
LIBP 170550Z AUTO 22004KT 9999 OVC056/// 09/08 Q1021
LIBP 170450Z AUTO 21006KT 9999 OVC054/// 09/07 Q1021
LIBP 170350Z AUTO 23005KT 9999 FEW060/// OVC082/// 09/08 Q1021
LIBP 170250Z AUTO 22006KT 9999 -RA BKN051/// OVC084/// 09/08 Q1021
LIBP 170150Z AUTO 23005KT 200V260 9999 -RA BKN055/// OVC063/// 09/08 Q1022
LIBP 170050Z AUTO 21007KT 9999 BKN056/// 09/07 Q1022
LIBP 162350Z AUTO 15004KT 110V190 9999 -RA BKN042/// 10/06 Q1023
LIBP 162250Z AUTO 21005KT 9999 OVC081/// 10/07 Q1022
LIBP 162150Z 22009KT 9999 FEW020 BKN080 10/06 Q1022
LIBP 162050Z 22005KT 9999 -RA FEW020 BKN070 10/07 Q1023
LIBP 161950Z 32006KT 270V020 9999 -RA SCT020 BKN060 10/05 Q1023
LIBP 161850Z 21005KT 9999 BKN080 11/04 Q1023

Informazioni elaborate utilizzando, tra l’altro, dati e prodotti del Servizio Meteorologico dell’Aeronautica Militare pubblicati sul sito www.meteoam.it e della National Oceanic and Atmospheric Administration (NOAA)

Ultimi caricamenti...


HA-TAB Saab 340 Fleet Air International

 


HA-TAB Saab 340 Fleet Air International

 


Pilatus PC-7 Swiss Air Force PC-7 Team

Questo sito non utilizza cookie di profilazione. Il sito utilizza cookie tecnici, di analisi anonima di prima parte e di terze parti per servizi di social network.